createdAt,value
2018-07-15T20:10:29.070Z,23.94
2018-07-15T20:11:44.047Z,23.92
2018-07-15T20:12:58.593Z,23.91
2018-07-15T20:14:13.605Z,23.91
2018-07-15T20:15:28.171Z,23.88
2018-07-15T20:16:42.633Z,23.9
2018-07-15T20:17:57.119Z,23.87
2018-07-15T20:19:11.837Z,23.85
2018-07-15T20:20:25.584Z,23.84
2018-07-15T20:21:39.873Z,23.85
2018-07-15T20:22:54.882Z,23.84
2018-07-15T20:24:09.323Z,23.83
2018-07-15T20:25:24.016Z,23.81
2018-07-15T20:26:38.446Z,23.79
2018-07-15T20:27:53.716Z,23.78
2018-07-15T20:29:07.446Z,23.78
2018-07-15T20:30:21.884Z,23.75
2018-07-15T20:31:35.883Z,23.73
2018-07-15T20:32:50.845Z,23.73
2018-07-15T20:34:05.959Z,23.72
2018-07-15T20:35:20.650Z,23.72
2018-07-15T20:36:34.559Z,23.71
2018-07-15T20:39:47.917Z,23.74
2018-07-15T20:41:03.257Z,23.74
2018-07-15T20:42:19.618Z,23.73
2018-07-15T20:43:34.318Z,23.71
2018-07-15T20:44:49.089Z,23.67
2018-07-15T20:46:03.268Z,23.68
2018-07-15T20:47:17.987Z,23.68
2018-07-15T20:48:31.945Z,23.69
2018-07-15T20:49:46.449Z,23.68
2018-07-15T20:51:01.136Z,23.66
2018-07-15T20:52:16.087Z,23.64
2018-07-15T20:53:30.778Z,23.64
2018-07-15T20:54:45.393Z,23.65
2018-07-15T20:56:00.730Z,23.64
2018-07-15T20:57:15.263Z,23.66
2018-07-15T20:58:30.217Z,23.64
2018-07-15T20:59:45.233Z,23.62
2018-07-15T21:01:00.027Z,23.61
2018-07-15T21:02:15.291Z,23.61
2018-07-15T21:03:30.725Z,23.59
2018-07-15T21:04:45.177Z,23.57
2018-07-15T21:06:00.159Z,23.53
2018-07-15T21:07:14.886Z,23.52
2018-07-15T21:08:29.879Z,23.5
2018-07-15T21:09:44.587Z,23.49
2018-07-15T21:10:59.397Z,23.48
2018-07-15T21:12:14.181Z,23.47
2018-07-15T21:13:28.646Z,23.46
2018-07-15T21:14:43.816Z,23.44
2018-07-15T21:15:58.513Z,23.42
2018-07-15T21:17:12.984Z,23.42
2018-07-15T21:18:27.450Z,23.43
2018-07-15T21:19:41.890Z,23.43
2018-07-15T21:20:57.059Z,23.43
2018-07-15T21:22:11.256Z,23.43
2018-07-15T21:23:25.680Z,23.42
2018-07-15T21:24:52.428Z,23.41
2018-07-15T21:26:07.173Z,23.38
2018-07-15T21:27:21.894Z,23.35
2018-07-15T21:28:36.582Z,23.35
2018-07-15T21:29:51.137Z,23.34
2018-07-15T21:31:05.651Z,23.37
2018-07-15T21:32:19.648Z,23.35
2018-07-15T21:33:34.104Z,23.36
2018-07-15T21:34:48.793Z,23.37
2018-07-15T21:36:03.670Z,23.36
2018-07-15T21:37:18.395Z,23.38
2018-07-15T21:38:33.131Z,23.37
2018-07-15T21:39:47.343Z,23.37
2018-07-15T21:41:01.840Z,23.34
2018-07-15T21:42:16.042Z,23.31
2018-07-15T21:43:30.742Z,23.29
2018-07-15T21:44:45.758Z,23.26
2018-07-15T21:46:00.219Z,23.24
2018-07-15T21:47:24.168Z,23.23
2018-07-15T21:48:39.097Z,23.23
2018-07-15T21:49:53.024Z,23.22
2018-07-15T21:51:13.081Z,23.26
2018-07-15T21:52:27.949Z,23.31
2018-07-15T21:53:42.938Z,23.36
2018-07-15T21:54:56.929Z,23.39
2018-07-15T21:56:11.849Z,23.4
2018-07-15T21:57:26.496Z,23.41
2018-07-15T21:58:41.378Z,23.41
2018-07-15T21:59:56.217Z,23.43
2018-07-15T22:01:10.944Z,23.42
2018-07-15T22:02:25.141Z,23.42
2018-07-15T22:03:39.767Z,23.43
2018-07-15T22:04:54.450Z,23.43
2018-07-15T22:06:09.223Z,23.43
2018-07-15T22:07:23.648Z,23.43
2018-07-15T22:08:37.843Z,23.45
2018-07-15T22:09:52.997Z,23.45
2018-07-15T22:11:07.820Z,23.43
2018-07-15T22:12:22.890Z,23.4
2018-07-15T22:13:37.801Z,23.34
2018-07-15T22:14:51.983Z,23.27
2018-07-15T22:16:06.372Z,23.21
2018-07-15T22:17:20.821Z,23.15
2018-07-15T22:18:35.324Z,23.08
2018-07-15T22:19:50.148Z,23.05
2018-07-15T22:21:04.721Z,23.01
2018-07-15T22:22:19.199Z,22.98
2018-07-15T22:23:33.131Z,22.96
2018-07-15T22:24:49.478Z,22.95
2018-07-15T22:26:04.129Z,22.96
2018-07-15T22:27:18.849Z,22.98
2018-07-15T22:28:33.556Z,22.99
2018-07-15T22:29:48.289Z,23.02
2018-07-15T22:31:03.209Z,23.04
2018-07-15T22:32:18.435Z,23.05
2018-07-15T22:33:32.941Z,23.08
2018-07-15T22:34:53.923Z,23.1
2018-07-15T22:36:08.194Z,23.12
2018-07-15T22:37:22.952Z,23.14
2018-07-15T22:38:37.641Z,23.17
2018-07-15T22:39:52.311Z,23.17
2018-07-15T22:41:06.508Z,23.17
2018-07-15T22:42:20.937Z,23.16
2018-07-15T22:43:35.949Z,23.14
2018-07-15T22:44:50.389Z,23.13
2018-07-15T22:46:04.837Z,23.12
2018-07-15T22:47:19.798Z,23.12
2018-07-15T22:48:34.739Z,23.12
2018-07-15T22:49:48.443Z,23.11
2018-07-15T22:51:03.048Z,23.11
2018-07-15T22:52:17.714Z,23.1
2018-07-15T22:53:32.395Z,23.11
2018-07-15T22:54:46.576Z,23.09
2018-07-15T22:56:01.586Z,23.08
2018-07-15T22:57:16.616Z,23.04
2018-07-15T22:58:30.533Z,23.01
2018-07-15T22:59:44.982Z,22.98
2018-07-15T23:00:59.619Z,22.93
2018-07-15T23:02:14.609Z,22.9
2018-07-15T23:03:29.555Z,22.87
2018-07-15T23:04:44.269Z,22.85
2018-07-15T23:05:58.688Z,22.83
2018-07-15T23:07:13.425Z,22.78
2018-07-15T23:08:28.425Z,22.72
2018-07-15T23:09:42.347Z,22.71
2018-07-15T23:10:57.036Z,22.69
2018-07-15T23:12:11.468Z,22.65
2018-07-15T23:13:25.922Z,22.65
2018-07-15T23:14:40.639Z,22.63
2018-07-15T23:15:55.344Z,22.62
2018-07-15T23:17:09.324Z,22.62
2018-07-15T23:18:23.237Z,22.62
2018-07-15T23:19:37.943Z,22.61
2018-07-15T23:20:52.412Z,22.6
2018-07-15T23:22:07.102Z,22.58
2018-07-15T23:23:21.820Z,22.55
2018-07-15T23:24:37.041Z,22.51
2018-07-15T23:25:51.735Z,22.46
2018-07-15T23:27:06.216Z,22.43
2018-07-15T23:28:20.626Z,22.39
2018-07-15T23:29:35.331Z,22.35
2018-07-15T23:30:49.519Z,22.34
2018-07-15T23:32:04.262Z,22.32
2018-07-15T23:33:18.702Z,22.31
2018-07-15T23:34:33.006Z,22.31
2018-07-15T23:35:47.665Z,22.32
2018-07-15T23:37:02.628Z,22.32
2018-07-15T23:38:17.117Z,22.33
2018-07-15T23:39:31.822Z,22.31
2018-07-15T23:40:46.386Z,22.3
2018-07-15T23:42:00.311Z,22.29
2018-07-15T23:43:15.014Z,22.28
2018-07-15T23:44:28.955Z,22.27
2018-07-15T23:45:43.422Z,22.25
2018-07-15T23:46:57.843Z,22.24
2018-07-15T23:48:11.762Z,22.24
2018-07-15T23:49:26.455Z,22.24
2018-07-15T23:50:41.364Z,22.26
2018-07-15T23:51:55.540Z,22.29
2018-07-15T23:53:09.566Z,22.32
2018-07-15T23:54:23.993Z,22.34
2018-07-15T23:55:38.442Z,22.37
2018-07-15T23:56:52.857Z,22.4
2018-07-15T23:58:07.433Z,22.4
2018-07-15T23:59:21.577Z,22.4
